Time;durP1;ratioP1;P1;durP2;ratioP2;P2;SDS_P1;SDS_P2;PMS_P1;PMS_P2;Temp;Humidity;BMP_temperature;BMP_pressure;BME280_temperature;BME280_humidity;BME280_pressure;Samples;Min_cycle;Max_cycle;Signal;HPM_P1;HPM_P2
2021/08/28 00:00:52;;;;;;;1.72;1.27;;;15.00;99.90;;;;;;1911939;75;21144;-77
2021/08/28 00:03:18;;;;;;;1.85;1.47;;;15.00;99.90;;;;;;1911841;75;21034;-77
2021/08/28 00:05:44;;;;;;;2.52;1.55;;;15.00;99.90;;;;;;1911986;75;21062;-77
2021/08/28 00:08:10;;;;;;;2.52;1.32;;;15.00;99.90;;;;;;1911806;75;21063;-77
2021/08/28 00:10:36;;;;;;;3.50;1.95;;;15.00;99.90;;;;;;1912166;75;21066;-77
2021/08/28 00:13:03;;;;;;;2.70;1.77;;;15.00;99.90;;;;;;1911834;75;21125;-77
2021/08/28 00:15:29;;;;;;;2.30;1.57;;;15.00;99.90;;;;;;1912019;75;21062;-77
2021/08/28 00:17:55;;;;;;;7.25;2.15;;;15.00;99.90;;;;;;1911944;75;21035;-77
2021/08/28 00:20:21;;;;;;;3.05;1.85;;;14.90;99.90;;;;;;1911948;75;21137;-77
2021/08/28 00:22:47;;;;;;;3.92;2.20;;;15.00;99.90;;;;;;1912041;75;21161;-77
2021/08/28 00:25:13;;;;;;;14.03;2.40;;;15.00;99.90;;;;;;1912073;75;21180;-77
2021/08/28 00:27:39;;;;;;;2.60;1.92;;;15.00;99.90;;;;;;1911982;75;21043;-77
2021/08/28 00:30:05;;;;;;;4.58;2.35;;;15.00;99.90;;;;;;1912060;75;21070;-77
2021/08/28 00:32:31;;;;;;;2.52;1.82;;;15.00;99.90;;;;;;1911940;75;21066;-77
2021/08/28 00:34:58;;;;;;;3.65;1.95;;;15.00;99.90;;;;;;1911948;75;21133;-77
2021/08/28 00:37:24;;;;;;;4.92;1.45;;;15.00;99.90;;;;;;1911983;75;21040;-77
2021/08/28 00:39:50;;;;;;;2.98;1.75;;;15.00;99.90;;;;;;1911994;75;21038;-77
2021/08/28 00:42:16;;;;;;;3.05;1.60;;;15.00;99.90;;;;;;1912045;75;21074;-77
2021/08/28 00:44:42;;;;;;;3.05;1.85;;;15.00;99.90;;;;;;1911981;75;21055;-77
2021/08/28 00:47:08;;;;;;;3.87;1.70;;;15.00;99.90;;;;;;1912005;75;21097;-77
2021/08/28 00:49:34;;;;;;;3.20;1.92;;;15.00;99.90;;;;;;1912049;75;21050;-77
2021/08/28 00:52:02;;;;;;;3.45;2.00;;;15.00;99.90;;;;;;1911923;75;21495;-77
2021/08/28 00:54:29;;;;;;;4.47;2.00;;;15.00;99.90;;;;;;1911930;75;21147;-77
2021/08/28 00:56:55;;;;;;;2.75;1.90;;;15.00;99.90;;;;;;1912028;75;21498;-77
2021/08/28 00:59:21;;;;;;;3.02;1.80;;;15.00;99.90;;;;;;1911939;75;21423;-77
2021/08/28 01:01:47;;;;;;;13.60;1.80;;;15.00;99.90;;;;;;1911887;75;21467;-76
2021/08/28 01:04:13;;;;;;;1.60;1.40;;;14.90;99.90;;;;;;1911838;75;21182;-77
2021/08/28 01:06:39;;;;;;;1.62;1.42;;;14.90;99.90;;;;;;1911996;75;21067;-77
2021/08/28 01:09:05;;;;;;;2.95;1.72;;;14.90;99.90;;;;;;1911827;75;21057;-77
2021/08/28 01:11:31;;;;;;;4.50;1.42;;;15.00;99.90;;;;;;1912095;75;21070;-77
2021/08/28 01:13:58;;;;;;;6.10;1.62;;;14.90;99.90;;;;;;1911849;75;21148;-77
2021/08/28 01:16:24;;;;;;;3.22;1.45;;;14.90;99.90;;;;;;1912116;75;21074;-77
2021/08/28 01:18:50;;;;;;;1.90;1.50;;;14.90;99.90;;;;;;1911851;75;21031;-77
2021/08/28 01:21:16;;;;;;;1.70;1.30;;;14.90;99.90;;;;;;1912007;75;21136;-77
2021/08/28 01:23:43;;;;;;;2.20;1.15;;;14.90;99.90;;;;;;1912014;75;21880;-76
2021/08/28 01:26:09;;;;;;;2.12;1.22;;;14.80;99.90;;;;;;1911945;75;21070;-76
2021/08/28 01:28:35;;;;;;;3.90;1.37;;;14.80;99.90;;;;;;1912000;75;21136;-76
2021/08/28 01:31:01;;;;;;;1.35;1.20;;;14.90;99.90;;;;;;1912013;75;21145;-76
2021/08/28 01:33:27;;;;;;;1.30;1.20;;;14.90;99.90;;;;;;1911912;75;21066;-76
2021/08/28 01:35:53;;;;;;;6.25;1.40;;;14.90;99.90;;;;;;1911913;75;21062;-76
2021/08/28 01:38:20;;;;;;;2.08;1.05;;;14.90;99.90;;;;;;1911999;75;21058;-76
2021/08/28 01:40:46;;;;;;;2.40;1.37;;;14.90;99.90;;;;;;1911947;75;21047;-76
2021/08/28 01:43:12;;;;;;;2.10;1.47;;;14.90;99.90;;;;;;1911903;75;21061;-75
2021/08/28 01:45:38;;;;;;;3.47;1.82;;;14.90;99.90;;;;;;1913463;75;21181;-76
2021/08/28 01:48:04;;;;;;;2.15;1.40;;;14.90;99.90;;;;;;1913444;75;21159;-75
2021/08/28 01:50:30;;;;;;;2.83;1.50;;;14.90;99.90;;;;;;1912024;75;21175;-76
2021/08/28 01:52:56;;;;;;;2.37;1.30;;;14.90;99.90;;;;;;1908022;74;21538;-76
2021/08/28 01:55:22;;;;;;;3.00;1.80;;;14.90;99.90;;;;;;1911915;75;21459;-76
2021/08/28 01:57:49;;;;;;;3.35;1.60;;;14.90;99.90;;;;;;1915251;75;21479;-76
2021/08/28 02:00:15;;;;;;;3.42;1.65;;;14.80;99.90;;;;;;1911904;75;21506;-76
2021/08/28 02:02:41;;;;;;;1.57;1.40;;;14.70;99.90;;;;;;1911908;75;21521;-76
2021/08/28 02:05:07;;;;;;;2.02;1.47;;;14.70;99.90;;;;;;1911884;75;21075;-76
2021/08/28 02:07:33;;;;;;;2.10;1.67;;;14.80;99.90;;;;;;1911855;75;21125;-76
2021/08/28 02:09:59;;;;;;;4.45;2.05;;;14.80;99.90;;;;;;1911892;75;21043;-76
2021/08/28 02:12:26;;;;;;;3.47;1.95;;;14.70;99.90;;;;;;1911898;75;21152;-76
2021/08/28 02:14:52;;;;;;;2.12;1.60;;;14.80;99.90;;;;;;1911987;75;21086;-76
2021/08/28 02:17:18;;;;;;;4.30;1.70;;;14.70;99.90;;;;;;1911787;75;21160;-76
2021/08/28 02:19:44;;;;;;;2.35;1.85;;;14.70;99.90;;;;;;1912000;75;21043;-76
2021/08/28 02:22:10;;;;;;;1.45;1.35;;;14.70;99.90;;;;;;1911796;75;21043;-76
2021/08/28 02:24:36;;;;;;;3.65;2.12;;;14.70;99.90;;;;;;1912007;75;21047;-76
2021/08/28 02:27:03;;;;;;;4.03;1.57;;;14.70;99.90;;;;;;1911746;75;21207;-76
2021/08/28 02:29:29;;;;;;;3.67;1.80;;;14.70;99.90;;;;;;1911957;75;21148;-76
2021/08/28 02:31:58;;;;;;;3.92;1.77;;;14.70;99.90;;;;;;1911797;75;21078;-76
2021/08/28 02:34:23;;;;;;;6.40;2.25;;;14.70;99.90;;;;;;1912194;73;21491;-76
2021/08/28 02:36:49;;;;;;;2.87;1.75;;;14.70;99.90;;;;;;1911875;75;21552;-76
2021/08/28 02:39:15;;;;;;;3.27;2.75;;;14.70;99.90;;;;;;1911892;75;21529;-76
2021/08/28 02:41:41;;;;;;;6.50;2.60;;;14.80;99.90;;;;;;1911959;75;21514;-76
2021/08/28 02:44:07;;;;;;;3.35;2.75;;;14.80;99.90;;;;;;1911885;75;21584;-76
2021/08/28 02:46:33;;;;;;;2.40;2.20;;;14.70;99.90;;;;;;1911888;75;21195;-76
2021/08/28 02:48:59;;;;;;;3.15;2.33;;;14.70;99.90;;;;;;1911829;75;21078;-76
2021/08/28 02:51:25;;;;;;;5.45;3.58;;;14.70;99.90;;;;;;1911865;75;21079;-75
2021/08/28 02:53:52;;;;;;;6.25;3.52;;;14.70;99.90;;;;;;1911869;75;21136;-76
2021/08/28 02:56:18;;;;;;;4.45;3.40;;;14.70;99.90;;;;;;1911990;75;21140;-76
2021/08/28 02:58:44;;;;;;;4.03;3.62;;;14.60;99.90;;;;;;1911990;75;21078;-75
2021/08/28 03:01:10;;;;;;;3.02;2.83;;;14.60;99.90;;;;;;1911984;75;21079;-75
2021/08/28 03:03:36;;;;;;;5.42;3.80;;;14.70;99.90;;;;;;1911982;75;21171;-75
2021/08/28 03:06:02;;;;;;;3.47;3.17;;;14.70;99.90;;;;;;1911982;75;21074;-75
2021/08/28 03:08:28;;;;;;;4.15;3.08;;;14.60;99.90;;;;;;1912072;75;21172;-75
2021/08/28 03:10:54;;;;;;;6.08;4.08;;;14.60;99.90;;;;;;1911995;75;21145;-76
2021/08/28 03:13:21;;;;;;;4.95;3.60;;;14.60;99.90;;;;;;1912092;75;21071;-75
2021/08/28 03:15:47;;;;;;;6.92;4.28;;;14.60;99.90;;;;;;1912082;75;21148;-75
2021/08/28 03:18:13;;;;;;;6.50;4.50;;;14.60;99.90;;;;;;1912083;75;21075;-75
2021/08/28 03:20:39;;;;;;;6.47;4.03;;;14.50;99.90;;;;;;1911951;75;21055;-76
2021/08/28 03:23:05;;;;;;;7.37;4.22;;;14.50;99.90;;;;;;1912047;75;21082;-76
2021/08/28 03:25:31;;;;;;;4.95;4.05;;;14.50;99.90;;;;;;1911880;75;21078;-76
2021/08/28 03:27:57;;;;;;;4.67;4.12;;;14.60;99.90;;;;;;1912038;75;21062;-75
2021/08/28 03:30:23;;;;;;;6.62;4.65;;;14.50;99.90;;;;;;1911972;75;21204;-75
2021/08/28 03:32:50;;;;;;;5.92;4.53;;;14.50;99.90;;;;;;1911978;75;21071;-75
2021/08/28 03:35:16;;;;;;;4.55;4.15;;;14.60;99.90;;;;;;1911961;75;21246;-75
2021/08/28 03:37:42;;;;;;;21.93;5.30;;;14.50;99.90;;;;;;1912094;75;21553;-75
2021/08/28 03:40:08;;;;;;;6.83;4.65;;;14.50;99.90;;;;;;1911845;75;21479;-75
2021/08/28 03:42:34;;;;;;;6.22;5.28;;;14.50;99.90;;;;;;1911846;75;21502;-75
2021/08/28 03:45:04;;;;;;;6.53;5.12;;;14.40;99.90;;;;;;1912030;75;21482;-75
2021/08/28 03:47:28;;;;;;;6.58;4.83;;;14.50;99.90;;;;;;1912131;73;21093;-75
2021/08/28 03:49:54;;;;;;;5.72;4.92;;;14.50;99.90;;;;;;1912046;75;21051;-76
2021/08/28 03:52:20;;;;;;;8.75;6.15;;;14.50;99.90;;;;;;1911864;75;21046;-76
2021/08/28 03:54:46;;;;;;;6.53;5.90;;;14.50;99.90;;;;;;1915561;75;21164;-76
2021/08/28 03:57:12;;;;;;;7.08;6.20;;;14.50;99.90;;;;;;1911847;75;21075;-76
2021/08/28 03:59:39;;;;;;;6.90;5.83;;;14.30;99.90;;;;;;1912035;75;21044;-76
2021/08/28 04:02:05;;;;;;;7.30;6.53;;;14.40;99.90;;;;;;1911941;75;21475;-76
2021/08/28 04:04:31;;;;;;;6.10;5.60;;;14.40;99.90;;;;;;1911937;75;21636;-76
2021/08/28 04:06:57;;;;;;;7.85;6.03;;;14.40;99.90;;;;;;1911746;75;21491;-76
2021/08/28 04:09:23;;;;;;;7.20;5.90;;;14.40;99.90;;;;;;1912080;75;21472;-76
2021/08/28 04:11:49;;;;;;;6.28;5.53;;;14.40;99.90;;;;;;1908329;74;21514;-76
2021/08/28 04:14:15;;;;;;;6.28;5.67;;;14.40;99.90;;;;;;1911951;75;21498;-76
2021/08/28 04:16:41;;;;;;;7.95;5.40;;;14.50;99.90;;;;;;1911931;74;21079;-76
2021/08/28 04:19:08;;;;;;;5.87;5.28;;;14.40;99.90;;;;;;1911903;75;21047;-76
2021/08/28 04:21:34;;;;;;;6.45;5.42;;;14.50;99.90;;;;;;1911946;75;21113;-76
2021/08/28 04:24:00;;;;;;;7.12;5.40;;;14.40;99.90;;;;;;1897170;74;21139;-76
2021/08/28 04:26:26;;;;;;;7.42;5.90;;;14.40;99.90;;;;;;1909754;75;21075;-76
2021/08/28 04:28:52;;;;;;;11.20;5.72;;;14.40;99.90;;;;;;1913666;75;21047;-76
2021/08/28 04:31:18;;;;;;;9.93;5.50;;;14.40;99.90;;;;;;1911935;75;21059;-76
2021/08/28 04:33:44;;;;;;;8.98;6.00;;;14.40;99.90;;;;;;1911949;75;21109;-76
2021/08/28 04:36:10;;;;;;;7.08;6.22;;;14.40;99.90;;;;;;1911958;75;21062;-76
2021/08/28 04:38:37;;;;;;;8.50;6.50;;;14.40;99.90;;;;;;1912088;75;21129;-76
2021/08/28 04:41:03;;;;;;;10.28;6.30;;;14.40;99.90;;;;;;1911985;75;21143;-76
2021/08/28 04:43:29;;;;;;;10.18;5.92;;;14.40;99.90;;;;;;1912019;75;21132;-77
2021/08/28 04:45:55;;;;;;;6.95;6.05;;;14.40;99.90;;;;;;1912083;75;21036;-77
2021/08/28 04:48:21;;;;;;;9.50;7.67;;;14.40;99.90;;;;;;1911910;75;21471;-77
2021/08/28 04:50:47;;;;;;;8.50;6.95;;;14.30;99.90;;;;;;1911929;75;21508;-76
2021/08/28 04:53:14;;;;;;;9.45;7.15;;;14.30;99.90;;;;;;1912035;75;21557;-76
2021/08/28 04:55:40;;;;;;;7.37;6.65;;;14.20;99.90;;;;;;1911940;75;21070;-76
2021/08/28 04:58:06;;;;;;;7.83;7.03;;;14.30;99.90;;;;;;1912022;75;21144;-77
2021/08/28 05:00:33;;;;;;;7.40;6.67;;;14.30;99.90;;;;;;1911931;75;21519;-77
2021/08/28 05:02:59;;;;;;;9.60;6.42;;;14.30;99.90;;;;;;1911921;75;21560;-77
2021/08/28 05:05:25;;;;;;;8.48;7.62;;;14.30;99.90;;;;;;1911907;75;21475;-77
2021/08/28 05:07:51;;;;;;;8.53;7.00;;;14.20;99.90;;;;;;1911894;75;21490;-77
2021/08/28 05:10:17;;;;;;;7.08;6.37;;;14.30;99.90;;;;;;1911943;75;21491;-76
2021/08/28 05:12:43;;;;;;;14.60;7.92;;;14.40;99.90;;;;;;1911933;75;21479;-76
2021/08/28 05:15:09;;;;;;;9.70;7.47;;;14.30;99.90;;;;;;1911932;75;21136;-76
2021/08/28 05:17:35;;;;;;;8.03;7.22;;;14.30;99.90;;;;;;1911875;75;21136;-76
2021/08/28 05:20:01;;;;;;;10.32;8.25;;;14.30;99.90;;;;;;1911869;75;21035;-76
2021/08/28 05:22:28;;;;;;;8.43;7.55;;;14.30;99.90;;;;;;1911909;75;21062;-76
2021/08/28 05:24:54;;;;;;;8.08;7.28;;;14.30;99.90;;;;;;1911933;75;21063;-77
2021/08/28 05:27:20;;;;;;;8.35;7.47;;;14.30;99.90;;;;;;1912083;75;21034;-77
2021/08/28 05:29:46;;;;;;;13.45;7.90;;;14.30;99.90;;;;;;1912006;75;21032;-77
2021/08/28 05:32:12;;;;;;;8.93;6.85;;;14.30;99.90;;;;;;1911810;75;21066;-76
2021/08/28 05:34:40;;;;;;;8.33;7.53;;;14.40;99.90;;;;;;1911996;75;21066;-77
2021/08/28 05:37:06;;;;;;;8.83;7.92;;;14.30;99.90;;;;;;1911750;75;21144;-77
2021/08/28 05:39:32;;;;;;;8.53;7.45;;;14.30;99.90;;;;;;1912012;75;21035;-77
2021/08/28 05:41:58;;;;;;;8.58;7.62;;;14.30;99.90;;;;;;1911753;75;21143;-75
2021/08/28 05:44:24;;;;;;;8.00;7.22;;;14.30;99.90;;;;;;1911975;75;21109;-76
2021/08/28 05:46:51;;;;;;;9.60;8.08;;;14.40;99.90;;;;;;1911791;75;21063;-77
2021/08/28 05:49:17;;;;;;;11.90;9.18;;;14.50;99.90;;;;;;1911972;75;21047;-77
2021/08/28 05:51:43;;;;;;;9.88;8.98;;;14.50;99.90;;;;;;1911820;75;21132;-76
2021/08/28 05:54:09;;;;;;;10.88;8.60;;;14.50;99.90;;;;;;1912021;75;21140;-77
2021/08/28 05:56:35;;;;;;;23.87;9.60;;;14.60;99.90;;;;;;1911804;75;21075;-76
2021/08/28 05:59:01;;;;;;;11.63;9.48;;;14.60;99.90;;;;;;1912089;75;21113;-76
2021/08/28 06:01:27;;;;;;;9.70;8.58;;;14.70;99.90;;;;;;1911805;75;21209;-77
2021/08/28 06:03:53;;;;;;;11.97;9.85;;;14.70;99.90;;;;;;1911904;75;21070;-76
2021/08/28 06:06:19;;;;;;;10.20;9.13;;;14.60;99.90;;;;;;1911801;75;21043;-76
2021/08/28 06:08:46;;;;;;;9.65;8.70;;;14.70;99.90;;;;;;1911857;75;21078;-76
2021/08/28 06:11:12;;;;;;;10.10;9.10;;;14.70;99.90;;;;;;1911885;75;21152;-76
2021/08/28 06:13:38;;;;;;;9.13;8.23;;;14.80;99.90;;;;;;1911859;75;21137;-76
2021/08/28 06:16:04;;;;;;;12.53;8.45;;;14.80;99.90;;;;;;1911956;75;21064;-76
2021/08/28 06:18:30;;;;;;;8.85;7.90;;;14.90;99.90;;;;;;1912135;75;21046;-76
2021/08/28 06:20:58;;;;;;;8.90;7.87;;;15.00;99.90;;;;;;1911933;75;21070;-76
2021/08/28 06:23:24;;;;;;;9.05;8.23;;;14.90;99.90;;;;;;1912037;75;21078;-77
2021/08/28 06:25:50;;;;;;;8.25;7.45;;;14.90;99.90;;;;;;1913778;75;21075;-76
2021/08/28 06:28:16;;;;;;;10.45;8.60;;;15.00;99.90;;;;;;1911812;75;21147;-76
2021/08/28 06:30:42;;;;;;;8.38;7.65;;;15.00;99.90;;;;;;1912094;75;21119;-76
2021/08/28 06:33:09;;;;;;;9.95;7.72;;;15.10;99.90;;;;;;1912051;75;21078;-76
2021/08/28 06:35:35;;;;;;;10.48;6.62;;;15.20;99.90;;;;;;1912042;75;21078;-76
2021/08/28 06:38:01;;;;;;;8.10;7.30;;;15.30;99.90;;;;;;1909518;74;21506;-76
2021/08/28 06:40:27;;;;;;;9.65;6.55;;;15.40;99.90;;;;;;1916991;74;21474;-76
2021/08/28 06:42:53;;;;;;;8.88;6.75;;;15.50;99.90;;;;;;1917638;75;21514;-76
2021/08/28 06:45:19;;;;;;;10.00;5.67;;;15.50;99.90;;;;;;1913254;75;21411;-76
2021/08/28 06:47:45;;;;;;;7.40;6.33;;;15.60;99.90;;;;;;1917227;75;21576;-76
2021/08/28 06:50:11;;;;;;;6.08;5.45;;;15.60;99.90;;;;;;1913732;75;21579;-75
2021/08/28 06:52:37;;;;;;;7.10;5.45;;;15.50;99.90;;;;;;1912112;75;21074;-76
2021/08/28 06:55:06;;;;;;;5.83;5.33;;;15.50;99.90;;;;;;1911923;75;21043;-76
2021/08/28 06:57:31;;;;;;;5.78;5.10;;;15.50;99.90;;;;;;1912012;75;21077;-76
2021/08/28 06:59:58;;;;;;;7.60;5.28;;;15.30;99.90;;;;;;1912061;75;21120;-75
2021/08/28 07:02:24;;;;;;;6.45;5.55;;;15.40;99.90;;;;;;1912093;75;21449;-75
2021/08/28 07:04:51;;;;;;;6.22;5.03;;;15.50;99.90;;;;;;1911975;75;21063;-75
2021/08/28 07:07:17;;;;;;;4.87;4.47;;;15.50;99.90;;;;;;1912088;75;21063;-75
2021/08/28 07:09:43;;;;;;;4.85;4.20;;;15.60;99.90;;;;;;1912125;75;21140;-75
2021/08/28 07:12:09;;;;;;;5.37;4.08;;;15.70;99.90;;;;;;1912147;75;21144;-76
2021/08/28 07:14:35;;;;;;;5.00;3.85;;;15.80;99.90;;;;;;1912120;75;21086;-76
2021/08/28 07:17:01;;;;;;;3.75;3.42;;;15.70;99.90;;;;;;1912126;75;21058;-76
2021/08/28 07:19:27;;;;;;;6.25;4.00;;;15.70;99.90;;;;;;1912150;75;21132;-76
2021/08/28 07:21:53;;;;;;;4.90;3.95;;;15.80;99.90;;;;;;1911960;75;21054;-75
2021/08/28 07:24:19;;;;;;;5.10;4.35;;;15.80;99.90;;;;;;1912174;75;21035;-75
2021/08/28 07:26:46;;;;;;;5.28;3.90;;;15.80;99.90;;;;;;1911934;75;21132;-75
2021/08/28 07:29:12;;;;;;;8.93;4.00;;;15.50;99.90;;;;;;1912064;75;21078;-75
2021/08/28 07:31:38;;;;;;;5.70;4.35;;;15.50;99.90;;;;;;1912019;75;21051;-75
2021/08/28 07:34:04;;;;;;;6.87;4.90;;;15.50;99.90;;;;;;1912142;75;21063;-75
2021/08/28 07:36:30;;;;;;;4.83;4.30;;;15.40;99.90;;;;;;1911896;75;21039;-76
2021/08/28 07:38:56;;;;;;;5.45;4.33;;;15.60;99.90;;;;;;1912104;75;21152;-75
2021/08/28 07:41:22;;;;;;;5.40;3.83;;;15.60;99.90;;;;;;1911883;75;21132;-76
2021/08/28 07:43:49;;;;;;;4.45;4.05;;;15.60;99.90;;;;;;1912063;75;21067;-76
2021/08/28 07:46:15;;;;;;;4.55;3.92;;;15.60;99.90;;;;;;1911926;75;21082;-75
2021/08/28 07:48:41;;;;;;;4.62;3.90;;;15.50;99.90;;;;;;1912155;75;21076;-75
2021/08/28 07:51:07;;;;;;;4.12;3.70;;;15.60;99.90;;;;;;1912126;75;21062;-75
2021/08/28 07:53:33;;;;;;;4.35;3.95;;;15.60;99.90;;;;;;1912175;75;21141;-75
2021/08/28 07:55:59;;;;;;;7.75;3.87;;;15.80;99.90;;;;;;1912332;75;21039;-74
2021/08/28 07:58:25;;;;;;;6.87;3.90;;;15.70;99.90;;;;;;1912144;75;21195;-75
2021/08/28 08:00:51;;;;;;;4.70;3.70;;;15.60;99.90;;;;;;1912316;75;21584;-75
2021/08/28 08:03:18;;;;;;;5.92;4.30;;;15.60;99.90;;;;;;1912060;75;21466;-74
2021/08/28 08:05:44;;;;;;;4.62;3.40;;;15.70;99.90;;;;;;1912024;75;21491;-75
2021/08/28 08:08:10;;;;;;;4.47;3.60;;;15.90;99.90;;;;;;1912005;75;21447;-75
2021/08/28 08:10:36;;;;;;;4.37;3.70;;;15.90;99.90;;;;;;1912012;75;21551;-75
2021/08/28 08:13:02;;;;;;;3.60;2.83;;;16.10;99.90;;;;;;1912039;75;21506;-75
2021/08/28 08:15:28;;;;;;;2.52;2.33;;;16.50;99.90;;;;;;1912248;75;21063;-75
2021/08/28 08:17:54;;;;;;;2.70;2.33;;;17.30;99.90;;;;;;1912215;75;21152;-75
2021/08/28 08:20:20;;;;;;;3.25;1.90;;;17.00;99.90;;;;;;1912293;75;21019;-76
2021/08/28 08:22:47;;;;;;;1.62;1.50;;;17.80;99.90;;;;;;1912125;75;21140;-75
2021/08/28 08:25:13;;;;;;;1.35;1.17;;;18.00;99.90;;;;;;1912212;75;21035;-75
2021/08/28 08:27:39;;;;;;;1.40;1.30;;;17.80;99.90;;;;;;1912203;75;21050;-75
2021/08/28 08:30:05;;;;;;;1.75;1.20;;;17.60;99.90;;;;;;1912012;75;21109;-75
2021/08/28 08:32:31;;;;;;;5.03;1.40;;;17.30;99.90;;;;;;1912270;75;21063;-75
2021/08/28 08:34:58;;;;;;;1.75;1.20;;;17.00;99.90;;;;;;1912145;75;21185;-75
2021/08/28 08:37:24;;;;;;;3.95;1.35;;;17.00;99.90;;;;;;1912392;75;21074;-75
2021/08/28 08:39:50;;;;;;;1.47;1.12;;;16.90;99.90;;;;;;1912166;75;21039;-74
2021/08/28 08:42:18;;;;;;;1.32;0.98;;;16.90;99.90;;;;;;1912308;75;21058;-75
2021/08/28 08:44:47;;;;;;;1.75;1.20;;;17.00;99.90;;;;;;1912156;75;21502;-73
2021/08/28 08:47:12;;;;;;;1.00;0.90;;;16.90;99.90;;;;;;1912380;73;21059;-74
2021/08/28 08:49:38;;;;;;;1.32;1.20;;;17.00;99.90;;;;;;1915533;75;21079;-75
2021/08/28 08:52:04;;;;;;;1.47;1.17;;;16.90;99.90;;;;;;1912184;75;21144;-75
2021/08/28 08:54:30;;;;;;;1.20;0.90;;;16.80;99.90;;;;;;1912025;75;21070;-75
2021/08/28 08:56:56;;;;;;;1.82;1.20;;;16.80;99.90;;;;;;1912243;75;21197;-75
2021/08/28 08:59:22;;;;;;;2.08;1.15;;;16.90;99.90;;;;;;1912016;75;21019;-75
2021/08/28 09:01:48;;;;;;;1.15;1.02;;;17.20;99.90;;;;;;1917411;75;21085;-74
2021/08/28 09:04:14;;;;;;;1.37;0.90;;;17.50;99.90;;;;;;1912061;75;21058;-75
2021/08/28 09:06:46;;;;;;;2.15;1.20;;;17.70;99.90;;;;;;1917211;75;21512;-75
2021/08/28 09:09:08;;;;;;;1.75;1.10;;;17.60;99.90;;;;;;1912524;73;21058;-75
2021/08/28 09:11:35;;;;;;;0.95;0.95;;;17.30;99.90;;;;;;1912084;75;21136;-75
2021/08/28 09:14:01;;;;;;;1.02;1.02;;;17.10;99.90;;;;;;1912071;75;21071;-75
2021/08/28 09:16:27;;;;;;;1.07;0.90;;;16.80;99.90;;;;;;1911948;75;21071;-74
2021/08/28 09:18:53;;;;;;;1.42;1.00;;;16.80;99.90;;;;;;1911954;75;21070;-76
2021/08/28 09:21:21;;;;;;;1.00;0.90;;;16.70;99.90;;;;;;1912176;75;21140;-73
2021/08/28 09:23:48;;;;;;;1.35;1.20;;;16.90;99.90;;;;;;1911897;75;21518;-73
2021/08/28 09:26:14;;;;;;;1.20;0.95;;;17.10;99.90;;;;;;1912100;75;21510;-73
2021/08/28 09:28:40;;;;;;;1.85;1.20;;;17.20;99.90;;;;;;1912065;75;21475;-74
2021/08/28 09:31:06;;;;;;;1.55;1.27;;;17.00;99.90;;;;;;1911964;75;21578;-73
2021/08/28 09:33:34;;;;;;;3.52;1.05;;;17.00;99.90;;;;;;1911958;75;21514;-72
2021/08/28 09:36:00;;;;;;;4.85;1.15;;;17.20;99.90;;;;;;1911999;75;21090;-72
2021/08/28 09:38:26;;;;;;;4.45;1.75;;;17.10;99.90;;;;;;1911946;75;21134;-73
2021/08/28 09:40:52;;;;;;;3.00;1.40;;;17.10;99.90;;;;;;1911988;75;21054;-74
2021/08/28 09:43:19;;;;;;;2.20;1.75;;;17.30;99.90;;;;;;1912231;75;21172;-72
2021/08/28 09:45:46;;;;;;;1.00;0.70;;;17.20;99.90;;;;;;1912227;75;21082;-73
2021/08/28 09:48:12;;;;;;;1.57;1.05;;;17.40;99.90;;;;;;1912072;75;21576;-73
2021/08/28 09:50:39;;;;;;;1.22;1.12;;;17.20;99.90;;;;;;1912218;75;21415;-73
2021/08/28 09:53:05;;;;;;;1.72;1.30;;;17.30;99.90;;;;;;1912348;75;21592;-73
2021/08/28 09:55:31;;;;;;;1.67;1.12;;;17.20;99.90;;;;;;1912957;75;21124;-73
2021/08/28 09:57:57;;;;;;;2.55;1.65;;;17.00;99.90;;;;;;1913683;75;21155;-73
2021/08/28 10:00:24;;;;;;;1.72;1.10;;;16.90;99.90;;;;;;1913488;75;21007;-75
2021/08/28 10:02:50;;;;;;;1.52;1.42;;;17.00;99.90;;;;;;1911960;75;21062;-74
2021/08/28 10:05:16;;;;;;;1.47;1.37;;;17.00;99.90;;;;;;1911863;75;21111;-75
2021/08/28 10:07:42;;;;;;;2.50;1.37;;;17.10;99.90;;;;;;1911952;75;21063;-74
2021/08/28 10:10:08;;;;;;;1.40;1.30;;;16.80;99.90;;;;;;1911898;75;21035;-76
2021/08/28 10:12:34;;;;;;;1.72;1.20;;;16.80;99.90;;;;;;1911904;75;21062;-75
2021/08/28 10:15:00;;;;;;;1.35;1.25;;;16.80;99.90;;;;;;1912035;75;21067;-74
2021/08/28 10:17:26;;;;;;;1.30;1.25;;;16.70;99.90;;;;;;1911837;75;21118;-75
2021/08/28 10:19:52;;;;;;;1.70;1.40;;;16.60;99.90;;;;;;1912012;75;21035;-75
2021/08/28 10:22:19;;;;;;;1.40;1.30;;;16.50;99.90;;;;;;1911839;75;21148;-76
2021/08/28 10:24:45;;;;;;;1.32;1.25;;;16.30;99.90;;;;;;1912090;75;21074;-75
2021/08/28 10:27:11;;;;;;;1.50;1.20;;;16.40;99.90;;;;;;1910807;74;21616;-76
2021/08/28 10:29:37;;;;;;;1.92;1.50;;;16.40;99.90;;;;;;1911822;75;21188;-76
2021/08/28 10:32:04;;;;;;;3.50;1.60;;;16.30;99.90;;;;;;1911873;75;21047;-75
2021/08/28 10:34:30;;;;;;;2.87;1.75;;;16.30;99.90;;;;;;1911880;75;21144;-76
2021/08/28 10:36:56;;;;;;;1.87;1.25;;;16.10;99.90;;;;;;1911899;75;21118;-75
2021/08/28 10:39:22;;;;;;;1.67;1.50;;;15.90;99.90;;;;;;1913073;75;21083;-76
2021/08/28 10:41:48;;;;;;;3.17;1.40;;;15.90;99.90;;;;;;1912177;75;21074;-77
2021/08/28 10:44:14;;;;;;;2.62;1.10;;;16.00;99.90;;;;;;1907765;74;21168;-76
2021/08/28 10:46:40;;;;;;;1.75;1.22;;;15.90;99.90;;;;;;1911678;75;21148;-77
2021/08/28 10:49:06;;;;;;;3.67;1.17;;;15.70;99.90;;;;;;1911569;75;21126;-77
2021/08/28 10:51:33;;;;;;;1.52;0.90;;;15.60;99.90;;;;;;1907991;74;21068;-77
2021/08/28 10:53:59;;;;;;;2.27;1.20;;;15.60;99.90;;;;;;1911759;75;21058;-76
2021/08/28 10:56:27;;;;;;;1.22;0.90;;;15.80;99.90;;;;;;1911856;75;21090;-77
2021/08/28 10:58:53;;;;;;;0.70;0.70;;;16.10;99.90;;;;;;1911682;75;21070;-77
2021/08/28 11:01:19;;;;;;;1.17;1.15;;;16.40;99.90;;;;;;1911799;75;21047;-76
2021/08/28 11:03:45;;;;;;;1.07;0.90;;;16.50;99.90;;;;;;1912483;74;21176;-75
2021/08/28 11:06:11;;;;;;;0.90;0.90;;;16.60;99.90;;;;;;1912435;75;21155;-75
2021/08/28 11:08:37;;;;;;;1.57;0.85;;;16.60;99.90;;;;;;1912514;75;21075;-76
2021/08/28 11:11:05;;;;;;;1.07;1.02;;;16.40;99.90;;;;;;1912382;75;21063;-76
2021/08/28 11:13:31;;;;;;;4.47;1.10;;;16.50;99.90;;;;;;1912646;75;21066;-75
2021/08/28 11:15:57;;;;;;;1.90;1.27;;;16.90;99.90;;;;;;1912504;75;21070;-76
2021/08/28 11:18:23;;;;;;;1.37;1.07;;;17.00;99.90;;;;;;1912652;75;21074;-75
2021/08/28 11:20:50;;;;;;;1.40;1.30;;;17.20;99.90;;;;;;1912522;75;21043;-75
2021/08/28 11:23:16;;;;;;;1.95;1.37;;;17.70;99.90;;;;;;1912797;75;21643;-75
2021/08/28 11:25:42;;;;;;;3.70;1.32;;;17.80;99.90;;;;;;1912590;75;21506;-75
2021/08/28 11:28:09;;;;;;;1.60;1.15;;;17.80;99.90;;;;;;1912585;75;21454;-77
2021/08/28 11:30:36;;;;;;;1.35;1.20;;;17.90;99.90;;;;;;1912647;75;21122;-76
2021/08/28 11:33:02;;;;;;;2.05;1.42;;;18.30;99.90;;;;;;1912478;75;21148;-74
2021/08/28 11:35:28;;;;;;;1.25;1.12;;;18.50;99.90;;;;;;1912658;75;21491;-76
2021/08/28 11:37:54;;;;;;;0.80;0.80;;;18.50;99.90;;;;;;1912585;75;21568;-75
2021/08/28 11:40:21;;;;;;;2.87;1.70;;;18.80;99.90;;;;;;1912577;75;21509;-76
2021/08/28 11:42:47;;;;;;;3.75;1.50;;;19.00;99.90;;;;;;1912467;75;21510;-75
2021/08/28 11:45:13;;;;;;;1.07;0.98;;;19.00;99.90;;;;;;1912690;75;21078;-76
2021/08/28 11:47:39;;;;;;;5.00;0.88;;;19.00;99.90;;;;;;1912553;75;21047;-75
2021/08/28 11:50:06;;;;;;;0.78;0.65;;;19.00;99.90;;;;;;1912575;75;21128;-76
2021/08/28 11:52:33;;;;;;;2.60;0.80;;;18.90;99.90;;;;;;1912676;75;21086;-75
2021/08/28 11:55:00;;;;;;;1.98;0.90;;;18.30;99.90;;;;;;1912696;75;21540;-75
2021/08/28 11:57:26;;;;;;;0.75;0.75;;;18.30;99.90;;;;;;1912631;75;21125;-75
2021/08/28 11:59:52;;;;;;;1.45;0.95;;;18.50;99.90;;;;;;1912684;75;21011;-76
2021/08/28 12:02:19;;;;;;;0.80;0.47;;;18.90;99.90;;;;;;1912739;75;21078;-76
2021/08/28 12:04:45;;;;;;;0.60;0.60;;;19.00;99.90;;;;;;1912750;75;21075;-75
2021/08/28 12:07:11;;;;;;;0.50;0.50;;;19.00;99.90;;;;;;1912836;75;21503;-76
2021/08/28 12:09:37;;;;;;;0.98;0.40;;;19.10;99.90;;;;;;1912482;75;21498;-76
2021/08/28 12:12:04;;;;;;;0.50;0.40;;;18.90;99.90;;;;;;1912643;75;21121;-74
2021/08/28 12:14:30;;;;;;;0.80;0.40;;;18.20;99.90;;;;;;1912677;75;21070;-76
2021/08/28 12:16:56;;;;;;;0.70;0.70;;;18.30;99.90;;;;;;1912714;75;21330;-76
2021/08/28 12:19:22;;;;;;;0.57;0.57;;;18.40;99.90;;;;;;1912529;75;21034;-76
2021/08/28 12:21:48;;;;;;;4.40;0.70;;;18.00;99.90;;;;;;1937452;74;21035;-76
2021/08/28 12:24:14;;;;;;;0.68;0.60;;;18.20;99.90;;;;;;1911944;75;21074;-76
2021/08/28 12:26:40;;;;;;;0.55;0.33;;;18.70;99.90;;;;;;1911542;75;21148;-76
2021/08/28 12:29:06;;;;;;;0.30;0.30;;;19.30;99.90;;;;;;1911757;75;21122;-77
2021/08/28 12:31:32;;;;;;;0.50;0.50;;;19.60;99.90;;;;;;1911877;75;21047;-76
2021/08/28 12:33:59;;;;;;;0.30;0.30;;;19.60;99.90;;;;;;1911894;75;21074;-76
2021/08/28 12:36:25;;;;;;;1.17;0.50;;;19.70;99.90;;;;;;1911951;75;21158;-75
2021/08/28 12:38:51;;;;;;;0.50;0.50;;;19.80;99.90;;;;;;1911919;75;21229;-76